Time;durP1;ratioP1;P1;durP2;ratioP2;P2;SDS_P1;SDS_P2;PMS_P1;PMS_P2;Temp;Humidity;BMP_temperature;BMP_pressure;BME280_temperature;BME280_humidity;BME280_pressure;Samples;Min_cycle;Max_cycle;Signal;HPM_P1;HPM_P2
2023/12/13 00:01:38;;;;;;;;;;;16.20;84.50;;;;;;5052369;28;19909;-75
2023/12/13 00:04:03;;;;;;;;;;;16.10;82.30;;;;;;5052262;28;20391;-75
2023/12/13 00:06:29;;;;;;;;;;;16.10;84.60;;;;;;5052409;28;19955;-75
2023/12/13 00:08:55;;;;;;;;;;;15.90;84.40;;;;;;5053184;28;19909;-75
2023/12/13 00:11:20;;;;;;;;;;;16.10;84.50;;;;;;5056571;28;19917;-75
2023/12/13 00:13:46;;;;;;;;;;;16.20;85.00;;;;;;5056979;28;19962;-75
2023/12/13 00:16:11;;;;;;;;;;;16.20;84.90;;;;;;5056494;28;19917;-75
2023/12/13 00:18:37;;;;;;;;;;;16.20;84.80;;;;;;5056653;28;19972;-75
2023/12/13 00:21:02;;;;;;;;;;;16.20;84.70;;;;;;5056325;28;19909;-75
2023/12/13 00:23:28;;;;;;;;;;;16.20;84.70;;;;;;5056390;28;19916;-74
2023/12/13 00:25:54;;;;;;;;;;;16.20;84.50;;;;;;5056318;28;19915;-75
2023/12/13 00:28:19;;;;;;;;;;;16.20;84.60;;;;;;5056248;28;19913;-75
2023/12/13 00:30:45;;;;;;;;;;;16.20;84.40;;;;;;5056136;28;20003;-75
2023/12/13 00:33:11;;;;;;;;;;;16.20;83.60;;;;;;5056171;28;19908;-75
2023/12/13 00:35:37;;;;;;;;;;;16.20;84.80;;;;;;5056143;28;19915;-75
2023/12/13 00:38:03;;;;;;;;;;;16.20;84.70;;;;;;5056029;28;20007;-75
2023/12/13 00:40:29;;;;;;;;;;;16.20;84.90;;;;;;5056514;28;19921;-75
2023/12/13 00:42:55;;;;;;;;;;;16.20;84.70;;;;;;5056022;28;19909;-75
2023/12/13 00:45:21;;;;;;;;;;;16.30;85.00;;;;;;5055955;28;19908;-75
2023/12/13 00:47:47;;;;;;;;;;;16.20;84.90;;;;;;5056101;28;19909;-75
2023/12/13 00:50:12;;;;;;;;;;;16.20;84.80;;;;;;5055756;28;20489;-75
2023/12/13 00:52:38;;;;;;;;;;;16.20;84.90;;;;;;5055814;28;19913;-73
2023/12/13 00:55:04;;;;;;;;;;;16.20;84.40;;;;;;5055869;28;19928;-74
2023/12/13 00:57:30;;;;;;;;;;;16.20;83.00;;;;;;5055668;28;19912;-74
2023/12/13 00:59:55;;;;;;;;;;;16.20;84.60;;;;;;5055682;28;19963;-74
2023/12/13 01:02:21;;;;;;;;;;;16.20;84.30;;;;;;5055655;28;19936;-74
2023/12/13 01:04:46;;;;;;;;;;;16.20;84.90;;;;;;5055426;28;19943;-73
2023/12/13 01:07:12;;;;;;;;;;;16.20;84.10;;;;;;5055563;28;19936;-73
2023/12/13 01:09:39;;;;;;;;;;;16.20;84.60;;;;;;5055994;28;19949;-75
2023/12/13 01:12:05;;;;;;;;;;;16.20;84.60;;;;;;5055493;28;19909;-75
2023/12/13 01:14:30;;;;;;;;;;;16.10;83.80;;;;;;5055416;28;20367;-75
2023/12/13 01:16:56;;;;;;;;;;;16.20;84.50;;;;;;5055301;28;20425;-75
2023/12/13 01:19:21;;;;;;;;;;;16.10;84.20;;;;;;5037337;28;19920;-75
2023/12/13 01:21:47;;;;;;;;;;;16.20;84.30;;;;;;5055156;28;19932;-75
2023/12/13 01:24:12;;;;;;;;;;;16.10;84.50;;;;;;5055271;28;19996;-75
2023/12/13 01:26:38;;;;;;;;;;;16.20;84.40;;;;;;5055199;28;19935;-75
2023/12/13 01:29:03;;;;;;;;;;;16.10;84.30;;;;;;5055068;28;20387;-75
2023/12/13 01:31:29;;;;;;;;;;;16.20;84.10;;;;;;5055080;28;19916;-75
2023/12/13 01:33:54;;;;;;;;;;;16.20;84.40;;;;;;5055076;28;20431;-75
2023/12/13 01:36:20;;;;;;;;;;;16.10;84.10;;;;;;5055240;28;19916;-75
2023/12/13 01:38:45;;;;;;;;;;;16.20;84.50;;;;;;5055359;28;19917;-75
2023/12/13 01:41:11;;;;;;;;;;;16.20;84.30;;;;;;5054832;28;19909;-75
2023/12/13 01:43:36;;;;;;;;;;;16.10;84.20;;;;;;5054972;28;19909;-75
2023/12/13 01:46:02;;;;;;;;;;;16.20;84.30;;;;;;5054826;28;19909;-75
2023/12/13 01:48:28;;;;;;;;;;;16.40;84.10;;;;;;5054736;28;20019;-75
2023/12/13 01:50:54;;;;;;;;;;;16.10;83.90;;;;;;5054858;28;19936;-74
2023/12/13 01:53:20;;;;;;;;;;;16.10;84.30;;;;;;5054758;28;19963;-73
2023/12/13 01:55:46;;;;;;;;;;;16.20;83.80;;;;;;5054673;28;19943;-74
2023/12/13 01:58:12;;;;;;;;;;;16.20;84.50;;;;;;5054542;28;20513;-74
2023/12/13 02:00:38;;;;;;;;;;;16.20;84.30;;;;;;5054616;28;19913;-74
2023/12/13 02:03:04;;;;;;;;;;;16.10;83.70;;;;;;5054299;28;19943;-73
2023/12/13 02:05:30;;;;;;;;;;;16.10;84.20;;;;;;5054410;28;19913;-74
2023/12/13 02:07:56;;;;;;;;;;;16.20;84.00;;;;;;5037276;28;20061;-76
2023/12/13 02:10:21;;;;;;;;;;;16.20;84.20;;;;;;5054330;28;19969;-75
2023/12/13 02:12:47;;;;;;;;;;;16.20;84.20;;;;;;5054373;28;19909;-75
2023/12/13 02:15:12;;;;;;;;;;;16.20;84.00;;;;;;5054543;28;20335;-75
2023/12/13 02:17:47;;;;;;;;;;;16.10;84.10;;;;;;5054245;28;19920;-75
2023/12/13 02:20:13;;;;;;;;;;;16.10;84.30;;;;;;5054199;28;20360;-75
2023/12/13 02:22:38;;;;;;;;;;;16.10;84.00;;;;;;5054107;28;19913;-75
2023/12/13 02:25:06;;;;;;;;;;;16.10;84.10;;;;;;5054103;28;19909;-75
2023/12/13 02:27:31;;;;;;;;;;;16.10;82.80;;;;;;5054042;28;19987;-75
2023/12/13 02:29:57;;;;;;;;;;;16.10;84.10;;;;;;5054253;28;20001;-75
2023/12/13 02:32:22;;;;;;;;;;;16.10;84.20;;;;;;5053042;28;20260;-75
2023/12/13 02:34:48;;;;;;;;;;;16.20;83.70;;;;;;5054419;28;19919;-73
2023/12/13 02:37:13;;;;;;;;;;;16.10;84.30;;;;;;5053883;28;19917;-74
2023/12/13 02:39:39;;;;;;;;;;;16.10;83.50;;;;;;5053820;28;20441;-73
2023/12/13 02:42:04;;;;;;;;;;;16.10;84.10;;;;;;5053807;28;19947;-74
2023/12/13 02:44:30;;;;;;;;;;;16.20;84.30;;;;;;5053711;28;19917;-74
2023/12/13 02:46:57;;;;;;;;;;;16.10;84.10;;;;;;5053798;28;19909;-75
2023/12/13 02:49:24;;;;;;;;;;;16.10;83.70;;;;;;5053619;28;20364;-75
2023/12/13 02:51:50;;;;;;;;;;;16.10;83.40;;;;;;5053571;28;19909;-75
2023/12/13 02:54:16;;;;;;;;;;;16.10;83.90;;;;;;5053570;28;19955;-75
2023/12/13 02:56:42;;;;;;;;;;;16.20;83.80;;;;;;5053435;28;20007;-75
2023/12/13 02:59:07;;;;;;;;;;;16.10;84.10;;;;;;5053293;28;20028;-76
2023/12/13 03:01:33;;;;;;;;;;;16.00;83.40;;;;;;5053240;28;19909;-76
2023/12/13 03:03:58;;;;;;;;;;;16.10;84.20;;;;;;5053549;28;20434;-76
2023/12/13 03:06:24;;;;;;;;;;;16.10;84.10;;;;;;5053317;28;19909;-75
2023/12/13 03:08:49;;;;;;;;;;;16.10;83.90;;;;;;5053270;28;19955;-76
2023/12/13 03:11:15;;;;;;;;;;;16.00;84.10;;;;;;5053192;28;19909;-76
2023/12/13 03:13:40;;;;;;;;;;;16.10;83.60;;;;;;5053130;28;19942;-75
2023/12/13 03:16:07;;;;;;;;;;;16.20;83.90;;;;;;5053181;28;20039;-75
2023/12/13 03:18:32;;;;;;;;;;;16.10;83.00;;;;;;5052885;28;20008;-74
2023/12/13 03:20:57;;;;;;;;;;;16.10;84.00;;;;;;5053081;28;19990;-74
2023/12/13 03:23:23;;;;;;;;;;;16.10;84.30;;;;;;5053090;28;20387;-74
2023/12/13 03:25:48;;;;;;;;;;;16.10;84.20;;;;;;5053042;28;19917;-74
2023/12/13 03:28:14;;;;;;;;;;;16.10;84.10;;;;;;5053003;28;19988;-74
2023/12/13 03:30:39;;;;;;;;;;;16.10;84.20;;;;;;5052845;28;19913;-74
2023/12/13 03:33:07;;;;;;;;;;;16.00;83.60;;;;;;5052789;28;20222;-75
2023/12/13 03:35:32;;;;;;;;;;;16.00;84.10;;;;;;5052684;28;19991;-75
2023/12/13 03:37:58;;;;;;;;;;;16.00;84.20;;;;;;5052699;28;19932;-75
2023/12/13 03:40:23;;;;;;;;;;;16.00;83.70;;;;;;5052737;28;19915;-75
2023/12/13 03:42:49;;;;;;;;;;;16.00;84.00;;;;;;5052603;28;19982;-75
2023/12/13 03:45:14;;;;;;;;;;;16.00;84.20;;;;;;5052720;28;19948;-74
2023/12/13 03:47:40;;;;;;;;;;;16.00;83.70;;;;;;5052592;28;20433;-74
2023/12/13 03:50:05;;;;;;;;;;;16.00;84.10;;;;;;5052605;28;19913;-74
2023/12/13 03:52:31;;;;;;;;;;;15.90;83.80;;;;;;5052522;28;19909;-74
2023/12/13 03:54:56;;;;;;;;;;;16.00;84.20;;;;;;5052531;28;20011;-74
2023/12/13 03:57:22;;;;;;;;;;;16.00;84.10;;;;;;5052442;28;19908;-74
2023/12/13 03:59:53;;;;;;;;;;;16.00;84.30;;;;;;5052474;28;19952;-74
2023/12/13 04:02:19;;;;;;;;;;;16.00;83.70;;;;;;5052366;28;19913;-76
2023/12/13 04:04:44;;;;;;;;;;;16.00;84.30;;;;;;5052210;28;19943;-75
2023/12/13 04:07:11;;;;;;;;;;;16.10;84.20;;;;;;5052442;28;19913;-76
2023/12/13 04:09:36;;;;;;;;;;;16.10;84.30;;;;;;5052426;28;19909;-75
2023/12/13 04:12:02;;;;;;;;;;;16.00;83.70;;;;;;5052450;28;19920;-75
2023/12/13 04:14:27;;;;;;;;;;;16.00;83.80;;;;;;5052356;28;20003;-75
2023/12/13 04:16:53;;;;;;;;;;;16.00;84.20;;;;;;5052248;28;19919;-76
2023/12/13 04:19:18;;;;;;;;;;;16.00;83.80;;;;;;5052148;28;19925;-75
2023/12/13 04:21:44;;;;;;;;;;;16.10;84.10;;;;;;5052286;28;19955;-76
2023/12/13 04:24:09;;;;;;;;;;;16.00;84.30;;;;;;5052157;28;20379;-75
2023/12/13 04:26:35;;;;;;;;;;;16.00;84.10;;;;;;5052246;28;19915;-75
2023/12/13 04:29:00;;;;;;;;;;;16.00;83.60;;;;;;5052693;28;19915;-76
2023/12/13 04:31:26;;;;;;;;;;;16.00;84.20;;;;;;5052176;28;19932;-76
2023/12/13 04:33:51;;;;;;;;;;;16.00;84.00;;;;;;5052114;28;19915;-76
2023/12/13 04:36:17;;;;;;;;;;;15.90;83.90;;;;;;5052114;28;19999;-76
2023/12/13 04:38:42;;;;;;;;;;;15.90;84.20;;;;;;5052003;28;20467;-76
2023/12/13 04:41:08;;;;;;;;;;;16.00;84.40;;;;;;5052201;28;19909;-74
2023/12/13 04:43:33;;;;;;;;;;;16.40;84.40;;;;;;5052104;28;19916;-74
2023/12/13 04:45:59;;;;;;;;;;;16.00;84.10;;;;;;5051969;28;19919;-74
2023/12/13 04:48:25;;;;;;;;;;;16.00;84.40;;;;;;5052052;28;19995;-74
2023/12/13 04:50:50;;;;;;;;;;;16.00;84.20;;;;;;5051881;28;19916;-74
2023/12/13 04:53:16;;;;;;;;;;;16.00;84.10;;;;;;5051980;28;19908;-74
2023/12/13 04:55:41;;;;;;;;;;;15.90;84.50;;;;;;5053810;28;19932;-74
2023/12/13 04:58:07;;;;;;;;;;;16.40;84.60;;;;;;5056132;28;19956;-74
2023/12/13 05:00:32;;;;;;;;;;;16.00;84.20;;;;;;5055693;28;20303;-74
2023/12/13 05:02:58;;;;;;;;;;;16.00;83.90;;;;;;5055337;28;20405;-74
2023/12/13 05:05:23;;;;;;;;;;;16.10;84.40;;;;;;5055824;28;20403;-74
2023/12/13 05:07:49;;;;;;;;;;;16.00;84.50;;;;;;5055614;28;20264;-74
2023/12/13 05:10:14;;;;;;;;;;;16.00;84.50;;;;;;5037652;28;19908;-76
2023/12/13 05:12:40;;;;;;;;;;;15.90;84.00;;;;;;5055758;28;20406;-76
2023/12/13 05:15:05;;;;;;;;;;;16.10;84.40;;;;;;5055377;28;19910;-76
2023/12/13 05:17:31;;;;;;;;;;;16.00;82.60;;;;;;5055493;28;19908;-76
2023/12/13 05:19:58;;;;;;;;;;;16.00;84.20;;;;;;5055281;28;19915;-75
2023/12/13 05:22:23;;;;;;;;;;;16.00;84.40;;;;;;5055280;28;20008;-76
2023/12/13 05:24:49;;;;;;;;;;;16.00;83.90;;;;;;5055258;28;19963;-76
2023/12/13 05:27:14;;;;;;;;;;;16.00;84.60;;;;;;5055705;28;19909;-76
2023/12/13 05:29:42;;;;;;;;;;;16.00;84.60;;;;;;5055148;28;19916;-76
2023/12/13 05:32:08;;;;;;;;;;;16.00;84.50;;;;;;5055145;28;20275;-76
2023/12/13 05:34:33;;;;;;;;;;;16.10;84.70;;;;;;5055069;28;20047;-76
2023/12/13 05:36:59;;;;;;;;;;;16.10;84.90;;;;;;5055033;28;19951;-74
2023/12/13 05:39:24;;;;;;;;;;;16.10;84.80;;;;;;5054956;28;19917;-76
2023/12/13 05:41:50;;;;;;;;;;;16.10;85.30;;;;;;5054958;28;20046;-76
2023/12/13 05:44:15;;;;;;;;;;;16.10;85.40;;;;;;5054849;28;19909;-76
2023/12/13 05:46:41;;;;;;;;;;;16.10;85.50;;;;;;5054806;28;19909;-76
2023/12/13 05:49:06;;;;;;;;;;;16.10;85.60;;;;;;5054669;28;19909;-76
2023/12/13 05:51:32;;;;;;;;;;;16.10;85.40;;;;;;5054984;28;19909;-76
2023/12/13 05:53:57;;;;;;;;;;;16.10;85.70;;;;;;5055198;28;19909;-76
2023/12/13 05:56:23;;;;;;;;;;;16.10;85.80;;;;;;5054644;28;19963;-76
2023/12/13 05:58:49;;;;;;;;;;;16.20;85.50;;;;;;5054517;28;20450;-76
2023/12/13 06:01:14;;;;;;;;;;;16.20;85.70;;;;;;5054473;28;19944;-76
2023/12/13 06:03:43;;;;;;;;;;;16.10;85.30;;;;;;5054238;28;19925;-75
2023/12/13 06:06:08;;;;;;;;;;;16.10;85.60;;;;;;5053638;28;20108;-74
2023/12/13 06:08:34;;;;;;;;;;;16.10;85.70;;;;;;5054062;28;19909;-74
2023/12/13 06:10:59;;;;;;;;;;;16.20;85.90;;;;;;5054450;28;19978;-73
2023/12/13 06:13:25;;;;;;;;;;;16.20;86.30;;;;;;5054358;28;19909;-74
2023/12/13 06:15:50;;;;;;;;;;;16.10;85.90;;;;;;5054281;28;20295;-74
2023/12/13 06:18:16;;;;;;;;;;;16.10;85.80;;;;;;5054152;28;20007;-74
2023/12/13 06:20:41;;;;;;;;;;;16.20;85.60;;;;;;5054193;28;19908;-74
2023/12/13 06:23:07;;;;;;;;;;;16.20;85.80;;;;;;5054620;28;19916;-75
2023/12/13 06:25:32;;;;;;;;;;;16.10;85.90;;;;;;5054099;28;19916;-75
2023/12/13 06:27:57;;;;;;;;;;;16.20;86.00;;;;;;5054068;28;19912;-75
2023/12/13 06:30:23;;;;;;;;;;;16.10;85.70;;;;;;5053986;28;20003;-74
2023/12/13 06:32:49;;;;;;;;;;;16.40;86.20;;;;;;5053945;28;19913;-74
2023/12/13 06:35:14;;;;;;;;;;;16.30;86.00;;;;;;5054133;28;20002;-73
2023/12/13 06:37:40;;;;;;;;;;;16.20;85.60;;;;;;5053782;28;21823;-72
2023/12/13 06:40:06;;;;;;;;;;;16.10;85.90;;;;;;5053735;28;20284;-73
2023/12/13 06:42:31;;;;;;;;;;;16.30;84.00;;;;;;5053670;28;20280;-73
2023/12/13 06:44:57;;;;;;;;;;;16.30;85.90;;;;;;5053675;28;19909;-73
2023/12/13 06:47:22;;;;;;;;;;;16.20;85.80;;;;;;5053623;28;19909;-75
2023/12/13 06:49:47;;;;;;;;;;;16.20;86.10;;;;;;5053623;28;20066;-74
2023/12/13 06:52:13;;;;;;;;;;;16.30;85.70;;;;;;5054092;28;19934;-72
2023/12/13 06:54:38;;;;;;;;;;;16.30;86.00;;;;;;5053412;28;19920;-72
2023/12/13 06:57:04;;;;;;;;;;;16.20;86.00;;;;;;5053430;28;20376;-72
2023/12/13 06:59:30;;;;;;;;;;;16.30;85.90;;;;;;5053358;28;20022;-72
2023/12/13 07:01:55;;;;;;;;;;;16.20;85.30;;;;;;5053327;28;19916;-72
2023/12/13 07:04:21;;;;;;;;;;;16.70;86.10;;;;;;5053208;28;19927;-74
2023/12/13 07:06:46;;;;;;;;;;;16.30;86.30;;;;;;5035274;28;19909;-74
2023/12/13 07:09:18;;;;;;;;;;;16.20;85.70;;;;;;5053304;28;19909;-74
2023/12/13 07:11:46;;;;;;;;;;;16.20;85.80;;;;;;5053419;28;19909;-73
2023/12/13 07:14:12;;;;;;;;;;;16.30;85.90;;;;;;5053139;28;19908;-73
2023/12/13 07:16:38;;;;;;;;;;;16.30;85.90;;;;;;5053389;28;20354;-73
2023/12/13 07:19:03;;;;;;;;;;;16.60;86.00;;;;;;5052559;28;19964;-73
2023/12/13 07:21:29;;;;;;;;;;;16.20;86.20;;;;;;5053475;28;19920;-80
2023/12/13 07:23:54;;;;;;;;;;;16.30;85.90;;;;;;5053236;28;19909;-80
2023/12/13 07:26:20;;;;;;;;;;;16.30;85.80;;;;;;5052958;28;20326;-78
2023/12/13 07:28:45;;;;;;;;;;;16.30;85.80;;;;;;5053190;28;19908;-80
2023/12/13 07:31:11;;;;;;;;;;;16.30;85.80;;;;;;5052872;28;20295;-80
2023/12/13 07:33:38;;;;;;;;;;;16.20;85.60;;;;;;5052840;28;19913;-73
2023/12/13 07:36:04;;;;;;;;;;;16.30;85.30;;;;;;5052984;28;19909;-74
2023/12/13 07:38:29;;;;;;;;;;;16.30;84.70;;;;;;5052711;28;19928;-74
2023/12/13 07:40:55;;;;;;;;;;;16.30;85.80;;;;;;5052702;28;19915;-74
2023/12/13 07:43:20;;;;;;;;;;;16.40;85.70;;;;;;5052770;28;19916;-72
2023/12/13 07:45:51;;;;;;;;;;;16.30;85.50;;;;;;5052645;28;19963;-74
2023/12/13 07:48:20;;;;;;;;;;;16.30;85.70;;;;;;5059763;28;19955;-81
2023/12/13 07:50:46;;;;;;;;;;;16.30;85.30;;;;;;5052557;28;19909;-78
2023/12/13 07:53:12;;;;;;;;;;;16.30;85.60;;;;;;5052460;28;19955;-79
2023/12/13 07:55:38;;;;;;;;;;;16.30;85.40;;;;;;5052780;28;19928;-80
2023/12/13 07:58:03;;;;;;;;;;;16.30;85.20;;;;;;5052420;28;19940;-76
2023/12/13 08:00:29;;;;;;;;;;;16.50;85.10;;;;;;5052717;28;20382;-73
2023/12/13 08:02:55;;;;;;;;;;;16.40;85.30;;;;;;5052136;28;19909;-75
2023/12/13 08:05:20;;;;;;;;;;;16.40;85.60;;;;;;5052414;28;19924;-74
2023/12/13 08:07:46;;;;;;;;;;;16.40;85.10;;;;;;5052453;28;20490;-74
2023/12/13 08:10:11;;;;;;;;;;;16.40;85.40;;;;;;5052566;28;19916;-73
2023/12/13 08:12:37;;;;;;;;;;;16.30;85.40;;;;;;5052389;28;20008;-74
2023/12/13 08:15:05;;;;;;;;;;;16.30;85.30;;;;;;5052378;28;20002;-74
2023/12/13 08:17:31;;;;;;;;;;;16.30;83.90;;;;;;5052965;28;19908;-78
2023/12/13 08:19:56;;;;;;;;;;;16.30;85.70;;;;;;5052296;28;20295;-77
2023/12/13 08:22:22;;;;;;;;;;;16.30;85.30;;;;;;5052244;28;19970;-77
2023/12/13 08:24:47;;;;;;;;;;;16.30;85.20;;;;;;5052415;28;20286;-77
2023/12/13 08:27:13;;;;;;;;;;;16.30;84.70;;;;;;5052207;28;20342;-80
2023/12/13 08:29:38;;;;;;;;;;;16.30;85.10;;;;;;5052592;28;19920;-79
2023/12/13 08:32:06;;;;;;;;;;;;;;;;;;5038605;28;19909;-78
2023/12/13 08:34:32;;;;;;;;;;;16.30;82.20;;;;;;5056453;28;19909;-77
2023/12/13 08:36:58;;;;;;;;;;;16.40;84.90;;;;;;5056321;28;20060;-78
2023/12/13 08:39:24;;;;;;;;;;;16.40;85.40;;;;;;5055908;28;19917;-78
2023/12/13 08:41:50;;;;;;;;;;;16.40;85.20;;;;;;5056104;28;19963;-80
2023/12/13 08:44:16;;;;;;;;;;;16.40;85.50;;;;;;5056079;28;19978;-78
2023/12/13 08:46:41;;;;;;;;;;;16.40;85.30;;;;;;5056460;28;19913;-76
2023/12/13 08:49:07;;;;;;;;;;;16.40;85.10;;;;;;5055891;28;20007;-73
2023/12/13 08:51:32;;;;;;;;;;;16.30;85.00;;;;;;5055806;28;19916;-74
2023/12/13 08:53:58;;;;;;;;;;;16.40;84.80;;;;;;5055783;28;19913;-74
2023/12/13 08:56:23;;;;;;;;;;;16.30;85.40;;;;;;5056080;28;19916;-74
2023/12/13 08:58:49;;;;;;;;;;;16.30;84.70;;;;;;5055563;28;19920;-73
2023/12/13 09:01:14;;;;;;;;;;;16.40;85.00;;;;;;5055717;28;20399;-73
2023/12/13 09:03:40;;;;;;;;;;;16.40;84.80;;;;;;5055329;28;19921;-73
2023/12/13 09:06:06;;;;;;;;;;;16.60;85.00;;;;;;5055700;28;19913;-74
2023/12/13 09:08:32;;;;;;;;;;;16.40;84.40;;;;;;5055487;28;20322;-73
2023/12/13 09:10:57;;;;;;;;;;;16.30;84.70;;;;;;5055398;28;19963;-72
2023/12/13 09:13:24;;;;;;;;;;;16.30;84.70;;;;;;5055889;28;19909;-75
2023/12/13 09:15:49;;;;;;;;;;;16.30;84.80;;;;;;5056991;28;19999;-75
2023/12/13 09:18:15;;;;;;;;;;;16.30;84.50;;;;;;5057644;28;19955;-76
2023/12/13 09:20:41;;;;;;;;;;;16.20;84.60;;;;;;5055651;28;19963;-76
2023/12/13 09:23:09;;;;;;;;;;;16.40;84.90;;;;;;5055510;28;19916;-75
2023/12/13 09:25:35;;;;;;;;;;;16.40;85.50;;;;;;5055223;28;19909;-76
2023/12/13 09:28:01;;;;;;;;;;;16.40;85.60;;;;;;5055281;28;19961;-75
2023/12/13 09:30:27;;;;;;;;;;;16.30;85.60;;;;;;5055146;28;19909;-76
2023/12/13 09:32:52;;;;;;;;;;;16.40;85.50;;;;;;5055133;28;19909;-76
2023/12/13 09:35:18;;;;;;;;;;;16.30;85.50;;;;;;5055044;28;20363;-76
2023/12/13 09:37:43;;;;;;;;;;;16.40;85.40;;;;;;5055019;28;19908;-76
2023/12/13 09:40:12;;;;;;;;;;;16.40;85.30;;;;;;5054956;28;19909;-77
2023/12/13 09:42:39;;;;;;;;;;;16.40;84.90;;;;;;5055073;28;19915;-77
2023/12/13 09:45:06;;;;;;;;;;;16.40;85.90;;;;;;5054823;28;19909;-79
2023/12/13 09:47:32;;;;;;;;;;;16.40;84.60;;;;;;5054744;28;19909;-75
2023/12/13 09:49:58;;;;;;;;;;;16.30;85.80;;;;;;5054784;28;20315;-75
2023/12/13 09:52:25;;;;;;;;;;;16.40;85.80;;;;;;5054663;28;19908;-76
2023/12/13 09:54:51;;;;;;;;;;;16.40;85.90;;;;;;5054745;28;19915;-77
2023/12/13 09:57:17;;;;;;;;;;;16.50;85.50;;;;;;5054927;28;19915;-79
2023/12/13 09:59:45;;;;;;;;;;;16.40;85.70;;;;;;5054930;28;19917;-79
2023/12/13 10:02:12;;;;;;;;;;;16.40;85.30;;;;;;5054510;28;19916;-77
2023/12/13 10:04:38;;;;;;;;;;;16.50;86.00;;;;;;5054403;28;19956;-83
2023/12/13 10:07:07;;;;;;;;;;;16.70;85.70;;;;;;5054617;28;19909;-77
2023/12/13 10:09:34;;;;;;;;;;;16.40;85.20;;;;;;5054610;28;19917;-79
2023/12/13 10:12:00;;;;;;;;;;;16.40;84.30;;;;;;5054914;28;19909;-81
2023/12/13 10:14:27;;;;;;;;;;;16.40;85.70;;;;;;5054312;28;19909;-80
2023/12/13 10:16:53;;;;;;;;;;;16.50;85.30;;;;;;5054680;28;20373;-80
2023/12/13 10:19:19;;;;;;;;;;;16.60;85.60;;;;;;5054344;28;19920;-78
2023/12/13 10:21:48;;;;;;;;;;;16.40;85.40;;;;;;5054619;28;19916;-80
2023/12/13 10:24:15;;;;;;;;;;;16.50;80.50;;;;;;5054515;28;19976;-72
2023/12/13 10:26:41;;;;;;;;;;;16.50;85.80;;;;;;5054255;28;19955;-72
2023/12/13 10:29:07;;;;;;;;;;;16.50;85.90;;;;;;5054292;28;19908;-72
2023/12/13 10:31:35;;;;;;;;;;;16.40;85.20;;;;;;5053921;28;20386;-72
2023/12/13 10:34:01;;;;;;;;;;;16.50;85.90;;;;;;5054174;28;19909;-72
2023/12/13 10:36:27;;;;;;;;;;;16.50;85.60;;;;;;5053755;28;20406;-72
2023/12/13 10:38:53;;;;;;;;;;;16.40;85.80;;;;;;5054245;28;19917;-71
2023/12/13 10:41:25;;;;;;;;;;;16.40;85.90;;;;;;5053769;28;19913;-71
2023/12/13 10:43:56;;;;;;;;;;;16.50;85.50;;;;;;5053954;28;19916;-71
2023/12/13 10:46:22;;;;;;;;;;;16.60;80.60;;;;;;5053618;28;19916;-71
2023/12/13 10:48:48;;;;;;;;;;;16.50;86.10;;;;;;5053626;28;19962;-71
2023/12/13 10:51:15;;;;;;;;;;;16.50;85.80;;;;;;5053861;28;19913;-71
2023/12/13 10:53:41;;;;;;;;;;;16.50;85.60;;;;;;5052798;28;19909;-71
2023/12/13 10:56:08;;;;;;;;;;;16.50;86.20;;;;;;5053756;28;19909;-71
2023/12/13 10:58:34;;;;;;;;;;;16.50;84.90;;;;;;5053347;28;19924;-72
2023/12/13 11:01:01;;;;;;;;;;;16.50;85.90;;;;;;5053440;28;19908;-71
2023/12/13 11:03:33;;;;;;;;;;;16.60;85.50;;;;;;5053269;28;19908;-72
2023/12/13 11:06:02;;;;;;;;;;;16.50;80.50;;;;;;5053421;28;20387;-71
2023/12/13 11:08:35;;;;;;;;;;;16.60;86.10;;;;;;5053862;28;19913;-79
2023/12/13 11:11:01;;;;;;;;;;;16.60;86.00;;;;;;5053261;28;19909;-80
2023/12/13 11:13:26;;;;;;;;;;;16.50;85.50;;;;;;5053177;28;19916;-80
2023/12/13 11:15:52;;;;;;;;;;;16.60;85.90;;;;;;5053153;28;19939;-80
2023/12/13 11:18:17;;;;;;;;;;;16.60;85.70;;;;;;5053054;28;20431;-80
2023/12/13 11:20:47;;;;;;;;;;;16.60;85.50;;;;;;5053109;28;19916;-71
2023/12/13 11:23:14;;;;;;;;;;;16.60;85.10;;;;;;5052973;28;19909;-71
2023/12/13 11:25:39;;;;;;;;;;;16.60;86.10;;;;;;5053101;28;19962;-72
2023/12/13 11:28:05;;;;;;;;;;;16.50;85.70;;;;;;5053159;28;20317;-72
2023/12/13 11:30:31;;;;;;;;;;;16.50;85.30;;;;;;5052836;28;20440;-73
2023/12/13 11:32:57;;;;;;;;;;;16.50;85.30;;;;;;5052895;28;19909;-71
2023/12/13 11:35:23;;;;;;;;;;;16.60;85.40;;;;;;5052886;28;20260;-72
2023/12/13 11:37:53;;;;;;;;;;;16.60;85.80;;;;;;5053191;28;19912;-74
2023/12/13 11:40:19;;;;;;;;;;;16.50;80.20;;;;;;5052998;28;19913;-72
2023/12/13 11:42:48;;;;;;;;;;;16.60;85.40;;;;;;5052642;28;20432;-72
2023/12/13 11:45:13;;;;;;;;;;;16.70;80.50;;;;;;5052720;28;19916;-72
2023/12/13 11:47:39;;;;;;;;;;;16.60;85.70;;;;;;5052703;28;20295;-75
2023/12/13 11:50:05;;;;;;;;;;;16.60;85.30;;;;;;5052668;28;19909;-73
2023/12/13 11:52:31;;;;;;;;;;;16.60;85.50;;;;;;5052568;28;19913;-73
2023/12/13 11:54:59;;;;;;;;;;;16.70;86.00;;;;;;5052555;28;19920;-73
2023/12/13 11:57:25;;;;;;;;;;;16.60;85.70;;;;;;5052763;28;20340;-73
2023/12/13 11:59:50;;;;;;;;;;;16.60;85.50;;;;;;5052609;28;20007;-72
2023/12/13 12:02:16;;;;;;;;;;;16.60;85.50;;;;;;5052387;28;19916;-73
2023/12/13 12:04:43;;;;;;;;;;;16.60;85.00;;;;;;5052688;28;19966;-72
2023/12/13 12:07:15;;;;;;;;;;;16.40;85.90;;;;;;5052518;28;19916;-73
2023/12/13 12:09:41;;;;;;;;;;;16.60;80.50;;;;;;5052534;28;20395;-72
2023/12/13 12:12:08;;;;;;;;;;;16.60;85.30;;;;;;5052325;28;19963;-72
2023/12/13 12:14:34;;;;;;;;;;;16.60;85.70;;;;;;5052328;28;19909;-73
2023/12/13 12:17:00;;;;;;;;;;;16.60;85.50;;;;;;5052387;28;19915;-76
2023/12/13 12:19:27;;;;;;;;;;;16.70;86.00;;;;;;5052569;28;19940;-77
2023/12/13 12:21:53;;;;;;;;;;;16.60;85.50;;;;;;5052410;28;19919;-77
2023/12/13 12:24:18;;;;;;;;;;;16.60;85.30;;;;;;5052367;28;19909;-77
2023/12/13 12:26:44;;;;;;;;;;;16.60;85.60;;;;;;5052168;28;19909;-76
2023/12/13 12:29:10;;;;;;;;;;;16.60;85.40;;;;;;5052229;28;19909;-76
2023/12/13 12:31:36;;;;;;;;;;;16.60;85.10;;;;;;5052186;28;19908;-76
2023/12/13 12:34:02;;;;;;;;;;;16.60;85.30;;;;;;5052657;28;19909;-72
2023/12/13 12:36:27;;;;;;;;;;;16.60;85.50;;;;;;5052149;28;19952;-73
2023/12/13 12:38:53;;;;;;;;;;;16.70;85.60;;;;;;5034265;28;20375;-73
2023/12/13 12:41:19;;;;;;;;;;;16.60;85.10;;;;;;5052089;28;19917;-73
2023/12/13 12:43:46;;;;;;;;;;;16.60;85.80;;;;;;5052086;28;20467;-72
2023/12/13 12:46:12;;;;;;;;;;;16.70;85.50;;;;;;5052134;28;19909;-76
2023/12/13 12:48:38;;;;;;;;;;;16.70;85.50;;;;;;5052068;28;20359;-76
2023/12/13 12:51:04;;;;;;;;;;;16.70;85.70;;;;;;5051976;28;19908;-76
2023/12/13 12:53:29;;;;;;;;;;;16.70;85.30;;;;;;5051903;28;19916;-76
2023/12/13 12:55:56;;;;;;;;;;;16.70;85.20;;;;;;5052185;28;19909;-76
2023/12/13 12:58:22;;;;;;;;;;;16.70;85.40;;;;;;5051891;28;20355;-76
2023/12/13 13:00:47;;;;;;;;;;;16.80;85.20;;;;;;5052054;28;19944;-76
2023/12/13 13:03:13;;;;;;;;;;;16.70;85.00;;;;;;5052136;28;19908;-76
2023/12/13 13:05:38;;;;;;;;;;;16.70;85.50;;;;;;5051956;28;20011;-76
2023/12/13 13:08:04;;;;;;;;;;;16.70;85.50;;;;;;5051947;28;19913;-76
2023/12/13 13:10:29;;;;;;;;;;;16.70;84.70;;;;;;5051824;28;20497;-76
2023/12/13 13:12:55;;;;;;;;;;;16.70;85.30;;;;;;5051842;28;20402;-76
2023/12/13 13:15:22;;;;;;;;;;;16.70;85.50;;;;;;5051950;28;19992;-72
2023/12/13 13:17:48;;;;;;;;;;;16.70;85.00;;;;;;5055192;28;19909;-72
2023/12/13 13:20:15;;;;;;;;;;;16.70;85.20;;;;;;5055338;28;19934;-72
2023/12/13 13:22:40;;;;;;;;;;;18.00;86.20;;;;;;5055362;28;19913;-72
2023/12/13 13:25:07;;;;;;;;;;;16.70;85.40;;;;;;5055254;28;19916;-72
2023/12/13 13:27:32;;;;;;;;;;;16.70;85.70;;;;;;5055196;28;19909;-72
2023/12/13 13:29:58;;;;;;;;;;;16.70;85.40;;;;;;5055669;28;19916;-75
2023/12/13 13:32:23;;;;;;;;;;;16.70;85.30;;;;;;5055378;28;20000;-76
2023/12/13 13:34:49;;;;;;;;;;;16.80;85.80;;;;;;5055087;28;19966;-76
2023/12/13 13:37:14;;;;;;;;;;;16.70;85.40;;;;;;5054964;28;19909;-76
2023/12/13 13:39:40;;;;;;;;;;;16.70;85.70;;;;;;5054951;28;20020;-76
2023/12/13 13:42:07;;;;;;;;;;;17.00;85.50;;;;;;5055053;28;19915;-72
2023/12/13 13:44:32;;;;;;;;;;;16.70;84.40;;;;;;5055020;28;20288;-72
2023/12/13 13:46:58;;;;;;;;;;;16.80;85.70;;;;;;5054871;28;19935;-72
2023/12/13 13:49:23;;;;;;;;;;;16.70;85.30;;;;;;5054722;28;19908;-72
2023/12/13 13:51:49;;;;;;;;;;;16.70;85.60;;;;;;5054833;28;19936;-72
2023/12/13 13:54:15;;;;;;;;;;;16.70;85.50;;;;;;5054999;28;19962;-72
2023/12/13 13:56:40;;;;;;;;;;;16.70;85.20;;;;;;5037211;28;20390;-72
2023/12/13 13:59:07;;;;;;;;;;;16.70;85.00;;;;;;5055052;28;19920;-72
2023/12/13 14:01:33;;;;;;;;;;;16.70;85.00;;;;;;5054479;28;19909;-72
2023/12/13 14:03:59;;;;;;;;;;;16.70;85.50;;;;;;5054300;28;19924;-71
2023/12/13 14:06:26;;;;;;;;;;;16.90;85.50;;;;;;5054755;28;19916;-71
2023/12/13 14:08:52;;;;;;;;;;;16.60;84.80;;;;;;5054673;28;19908;-72
2023/12/13 14:11:18;;;;;;;;;;;16.70;85.00;;;;;;5054696;28;20251;-78